KMTH/MTH METAR and TAF weather

Enter ICAO airport designator
Station Type Date Time Source
KMTH METAR 2019/04/25 07:53 UTC NOAA

KMTH 250753Z AUTO 12006KT 10SM FEW030 26/18 A2995 RMK AO2 SLP140 T02560183


Station Type Date Time Source
KMTH Decoded METAR 2019/04/25 07:53 UTC NOAA

MARATHON AIRPORT, FL, United States (KMTH) 24-44N 81-03W 2M
Apr 25, 2019 - 03:53 AM EDT / 2019.04.25 0753 UTC
Wind: from the ESE (120 degrees) at 7 MPH (6 KT):0
Visibility: 10 mile(s):0
Sky conditions: mostly clear
Temperature: 78.1 F (25.6 C)
Dew Point: 64.9 F (18.3 C)
Relative Humidity: 64%
Pressure (altimeter): 29.95 in. Hg (1014 hPa)
ob: KMTH 250753Z AUTO 12006KT 10SM FEW030 26/18 A2995 RMK AO2 SLP140 T02560183
cycle: 8

Station Type Date Time Source
KMTH TAF 2019/04/25 06:27 UTC NOAA

TAF KMTH 250524Z 2506/2606 10005KT P6SM SCT250
FM251200 13006KT P6SM FEW035 SCT250

Example: see airport list